createdAt,value
2019-02-06T00:00:33.563Z,1.57
2019-02-06T00:01:33.549Z,1.47
2019-02-06T00:02:33.534Z,1.49
2019-02-06T00:03:33.534Z,1.54
2019-02-06T00:04:33.548Z,1.54
2019-02-06T00:05:33.524Z,1.56
2019-02-06T00:06:33.510Z,1.46
2019-02-06T00:07:33.491Z,1.52
2019-02-06T00:08:33.482Z,1.60
2019-02-06T00:09:33.498Z,1.47
2019-02-06T00:10:33.472Z,1.60
2019-02-06T00:11:35.120Z,1.65
2019-02-06T00:12:33.435Z,1.60
2019-02-06T00:13:33.447Z,1.56
2019-02-06T00:14:33.444Z,1.57
2019-02-06T00:15:33.402Z,1.61
2019-02-06T00:16:33.383Z,1.57
2019-02-06T00:17:33.377Z,1.56
2019-02-06T00:18:33.419Z,1.56
2019-02-06T00:19:33.368Z,1.47
2019-02-06T00:20:33.349Z,1.61
2019-02-06T00:21:33.340Z,1.56
2019-02-06T00:22:33.350Z,1.60
2019-02-06T00:23:33.312Z,1.60
2019-02-06T00:24:33.389Z,1.54
2019-02-06T00:25:33.301Z,1.63
2019-02-06T00:26:33.273Z,1.53
2019-02-06T00:27:33.269Z,1.57
2019-02-06T00:28:33.287Z,1.53
2019-02-06T00:29:33.269Z,1.53
2019-02-06T00:30:33.242Z,1.47
2019-02-06T00:31:33.217Z,1.56
2019-02-06T00:32:33.219Z,1.60
2019-02-06T00:33:33.202Z,1.50
2019-02-06T00:34:33.218Z,1.47
2019-02-06T00:35:33.178Z,1.43
2019-02-06T00:36:33.176Z,1.57
2019-02-06T00:37:33.174Z,1.57
2019-02-06T00:38:33.148Z,1.46
2019-02-06T00:39:33.164Z,1.60
2019-02-06T00:40:33.150Z,1.50
2019-02-06T00:41:33.112Z,1.54
2019-02-06T00:42:33.144Z,1.49
2019-02-06T00:43:33.089Z,1.54
2019-02-06T00:44:33.114Z,1.44
2019-02-06T00:45:33.068Z,1.44
2019-02-06T00:46:33.068Z,1.49
2019-02-06T00:47:33.051Z,1.54
2019-02-06T00:48:33.046Z,1.38
2019-02-06T00:49:33.035Z,1.47
2019-02-06T00:50:33.014Z,1.44
2019-02-06T00:51:33.018Z,1.43
2019-02-06T00:52:32.999Z,1.39
2019-02-06T00:53:32.994Z,1.44
2019-02-06T00:54:32.983Z,1.43
2019-02-06T00:55:32.993Z,1.46
2019-02-06T00:56:32.950Z,1.47
2019-02-06T00:57:32.949Z,1.47
2019-02-06T00:58:32.937Z,1.43
2019-02-06T00:59:32.915Z,1.49
2019-02-06T01:00:32.932Z,1.44
2019-02-06T01:01:32.909Z,1.42
2019-02-06T01:02:32.899Z,1.53
2019-02-06T01:03:32.924Z,1.54
2019-02-06T01:04:32.869Z,1.46
2019-02-06T01:05:38.328Z,1.43
2019-02-06T01:06:32.845Z,1.52
2019-02-06T01:07:32.837Z,1.38
2019-02-06T01:08:32.824Z,1.46
2019-02-06T01:09:32.819Z,1.47
2019-02-06T01:10:32.823Z,1.43
2019-02-06T01:11:32.801Z,1.44
2019-02-06T01:12:32.789Z,1.38
2019-02-06T01:13:32.767Z,1.38
2019-02-06T01:14:32.754Z,1.42
2019-02-06T01:15:32.783Z,1.34
2019-02-06T01:16:32.766Z,1.36
2019-02-06T01:17:32.725Z,1.35
2019-02-06T01:18:32.781Z,1.32
2019-02-06T01:19:32.712Z,1.39
2019-02-06T01:20:32.722Z,1.31
2019-02-06T01:21:32.696Z,1.36
2019-02-06T01:22:32.677Z,1.32
2019-02-06T01:23:32.826Z,1.31
2019-02-06T01:24:32.658Z,1.36
2019-02-06T01:25:32.671Z,1.34
2019-02-06T01:26:32.627Z,1.26
2019-02-06T01:27:32.622Z,1.26
2019-02-06T01:28:32.615Z,1.29
2019-02-06T01:29:32.625Z,1.21
2019-02-06T01:30:32.621Z,1.24
2019-02-06T01:31:32.586Z,1.29
2019-02-06T01:32:32.569Z,1.25
2019-02-06T01:33:32.559Z,1.28
2019-02-06T01:34:32.549Z,1.18
2019-02-06T01:35:32.558Z,1.18
2019-02-06T01:36:32.515Z,1.18
2019-02-06T01:37:32.507Z,1.11
2019-02-06T01:38:32.511Z,1.08
2019-02-06T01:39:32.526Z,1.08
2019-02-06T01:40:32.523Z,1.06
2019-02-06T01:41:32.482Z,1.11
2019-02-06T01:42:32.455Z,1.06
2019-02-06T01:43:32.453Z,1.08
2019-02-06T01:45:41.664Z,1.10
2019-02-06T01:46:42.615Z,1.10
2019-02-06T01:47:42.604Z,0.98
2019-02-06T01:48:42.594Z,1.00
2019-02-06T01:49:44.724Z,0.95
2019-02-06T01:50:42.608Z,0.99
2019-02-06T01:51:42.558Z,0.89
2019-02-06T01:52:42.553Z,0.95
2019-02-06T01:53:42.544Z,0.92
2019-02-06T01:54:42.530Z,0.92
2019-02-06T01:55:42.537Z,0.90
2019-02-06T01:56:42.514Z,0.96
2019-02-06T01:57:42.489Z,0.88
2019-02-06T01:58:42.480Z,0.90
2019-02-06T01:59:42.469Z,0.90
2019-02-06T02:00:42.489Z,0.86
2019-02-06T02:01:42.464Z,0.89
2019-02-06T02:02:42.449Z,0.86
2019-02-06T02:03:42.436Z,0.84
2019-02-06T02:04:42.413Z,0.84
2019-02-06T02:05:42.420Z,0.86
2019-02-06T02:06:42.429Z,0.88
2019-02-06T02:07:42.392Z,0.88
2019-02-06T02:08:42.376Z,0.88
2019-02-06T02:09:42.384Z,0.88
2019-02-06T02:10:42.355Z,0.86
2019-02-06T02:11:42.372Z,0.84
2019-02-06T02:12:42.336Z,0.90
2019-02-06T02:13:42.325Z,0.93
2019-02-06T02:14:42.326Z,0.95
2019-02-06T02:15:42.314Z,0.95
2019-02-06T02:16:42.316Z,0.93
2019-02-06T02:17:42.287Z,0.95
2019-02-06T02:18:42.301Z,0.96
2019-02-06T02:19:42.259Z,0.88
2019-02-06T02:20:42.250Z,0.84
2019-02-06T02:21:42.394Z,0.90
2019-02-06T02:22:42.250Z,0.72
2019-02-06T02:23:42.236Z,0.84
2019-02-06T02:24:42.213Z,0.84
2019-02-06T02:25:42.197Z,0.84
2019-02-06T02:26:42.217Z,0.88
2019-02-06T02:27:42.167Z,0.80
2019-02-06T02:28:42.155Z,0.81
2019-02-06T02:29:42.148Z,0.78
2019-02-06T02:30:42.152Z,0.89
2019-02-06T02:31:42.161Z,0.84
2019-02-06T02:32:42.118Z,0.95
2019-02-06T02:33:42.107Z,0.88
2019-02-06T02:34:42.091Z,0.88
2019-02-06T02:35:42.092Z,0.92
2019-02-06T02:36:42.098Z,0.96
2019-02-06T02:37:42.067Z,0.93
2019-02-06T02:38:42.046Z,0.84
2019-02-06T02:39:42.041Z,0.82
2019-02-06T02:40:42.037Z,0.84
2019-02-06T02:41:42.039Z,0.82
2019-02-06T02:42:42.004Z,0.84
2019-02-06T02:43:42.006Z,0.84
2019-02-06T02:44:41.997Z,0.81
2019-02-06T02:45:41.980Z,0.72
2019-02-06T02:46:41.974Z,0.81
2019-02-06T02:47:41.989Z,0.81
2019-02-06T02:48:41.956Z,0.81
2019-02-06T02:49:41.939Z,0.82
2019-02-06T02:50:41.928Z,0.78
2019-02-06T02:51:44.293Z,0.78
2019-02-06T02:52:41.917Z,0.88
2019-02-06T02:53:41.903Z,0.75
2019-02-06T02:54:41.895Z,0.78
2019-02-06T02:55:41.877Z,0.78
2019-02-06T02:56:41.860Z,0.78
2019-02-06T02:57:41.880Z,0.77
2019-02-06T02:58:41.842Z,0.95
2019-02-06T02:59:41.824Z,0.93
2019-02-06T03:00:41.825Z,0.89
2019-02-06T03:01:41.816Z,0.88
2019-02-06T03:02:41.813Z,0.84
2019-02-06T03:03:41.778Z,0.82
2019-02-06T03:04:41.791Z,0.88
2019-02-06T03:05:41.764Z,0.90
2019-02-06T03:06:41.744Z,0.92
2019-02-06T03:07:41.768Z,0.84
2019-02-06T03:08:41.733Z,0.96
2019-02-06T03:09:41.711Z,0.92
2019-02-06T03:10:42.380Z,0.98
2019-02-06T03:11:41.701Z,0.92
2019-02-06T03:12:41.745Z,1.04
2019-02-06T03:13:41.705Z,0.95
2019-02-06T03:14:41.657Z,0.98
2019-02-06T03:15:41.664Z,0.88
2019-02-06T03:16:41.654Z,0.98
2019-02-06T03:17:41.651Z,0.98
2019-02-06T03:18:41.622Z,1.00
2019-02-06T03:19:41.801Z,0.96
2019-02-06T03:20:41.603Z,0.95
2019-02-06T03:21:41.583Z,1.00
2019-02-06T03:22:41.606Z,0.98
2019-02-06T03:23:41.577Z,0.98
2019-02-06T03:24:41.564Z,0.98
2019-02-06T03:25:41.574Z,0.92
2019-02-06T03:26:41.535Z,1.00
2019-02-06T03:27:41.564Z,1.00
2019-02-06T03:28:41.524Z,1.00
2019-02-06T03:29:41.506Z,1.08
2019-02-06T03:30:41.550Z,1.06
2019-02-06T03:31:41.506Z,1.06
2019-02-06T03:32:41.500Z,1.04
2019-02-06T03:33:41.477Z,1.07
2019-02-06T03:34:41.463Z,1.06
2019-02-06T03:35:41.444Z,1.11
2019-02-06T03:36:41.428Z,1.04
2019-02-06T03:37:41.443Z,1.07
2019-02-06T03:38:41.421Z,1.02
2019-02-06T03:39:41.392Z,1.11
2019-02-06T03:40:41.380Z,1.00
2019-02-06T03:41:41.375Z,1.02
2019-02-06T03:42:41.397Z,1.00
2019-02-06T03:43:41.369Z,1.02
2019-02-06T03:44:41.367Z,1.08
2019-02-06T03:46:50.532Z,1.02
2019-02-06T03:47:51.619Z,1.06
2019-02-06T03:48:51.512Z,1.06
2019-02-06T03:49:51.504Z,1.08
2019-02-06T03:50:51.489Z,1.10
2019-02-06T03:51:51.486Z,1.17
2019-02-06T03:52:51.476Z,1.14
2019-02-06T03:53:51.460Z,1.21
2019-02-06T03:54:51.432Z,1.17
2019-02-06T03:55:51.435Z,1.20
2019-02-06T03:56:51.422Z,1.17
2019-02-06T03:57:51.427Z,1.21
2019-02-06T03:58:51.406Z,1.26
2019-02-06T03:59:51.389Z,1.25
2019-02-06T04:00:51.369Z,1.18
2019-02-06T04:01:51.359Z,1.16
2019-02-06T04:02:51.386Z,1.10
2019-02-06T04:03:51.351Z,1.00
2019-02-06T04:04:51.323Z,1.10
2019-02-06T04:05:51.323Z,1.10
2019-02-06T04:06:56.183Z,1.04
2019-02-06T04:07:51.329Z,1.06
2019-02-06T04:08:51.289Z,1.08
2019-02-06T04:09:51.281Z,1.07
2019-02-06T04:10:51.284Z,1.00
2019-02-06T04:11:51.255Z,1.04
2019-02-06T04:12:51.274Z,1.07
2019-02-06T04:13:51.227Z,1.08
2019-02-06T04:14:51.231Z,1.00
2019-02-06T04:15:51.207Z,1.10
2019-02-06T04:16:51.200Z,1.13
2019-02-06T04:17:54.370Z,1.10
2019-02-06T04:18:51.176Z,1.11
2019-02-06T04:19:51.168Z,1.10
2019-02-06T04:20:51.249Z,1.17
2019-02-06T04:21:51.138Z,1.14
2019-02-06T04:22:51.162Z,1.10
2019-02-06T04:23:51.122Z,1.06
2019-02-06T04:24:51.783Z,1.07
2019-02-06T04:25:51.097Z,1.10
2019-02-06T04:26:51.092Z,1.10
2019-02-06T04:27:51.097Z,0.98
2019-02-06T04:28:51.068Z,1.10
2019-02-06T04:29:51.066Z,1.07
2019-02-06T04:30:51.037Z,1.06
2019-02-06T04:31:51.028Z,1.06
2019-02-06T04:32:51.022Z,1.08
2019-02-06T04:33:51.011Z,1.06
2019-02-06T04:34:51.002Z,1.13
2019-02-06T04:35:50.992Z,1.18
2019-02-06T04:36:50.972Z,1.14
2019-02-06T04:37:50.974Z,1.13
2019-02-06T04:38:50.982Z,1.18
2019-02-06T04:39:50.952Z,1.20
2019-02-06T04:40:51.036Z,1.20
2019-02-06T04:41:50.933Z,1.24
2019-02-06T04:42:50.903Z,1.29
2019-02-06T04:43:50.919Z,1.21
2019-02-06T04:44:50.892Z,1.25
2019-02-06T04:45:50.877Z,1.26
2019-02-06T04:46:50.862Z,1.24
2019-02-06T04:47:50.866Z,1.36
2019-02-06T04:48:50.874Z,1.36
2019-02-06T04:49:50.847Z,1.34
2019-02-06T04:50:50.831Z,1.32
2019-02-06T04:51:50.817Z,1.39
2019-02-06T04:52:50.805Z,1.38
2019-02-06T04:53:50.822Z,1.35
2019-02-06T04:54:50.796Z,1.38
2019-02-06T04:55:50.766Z,1.42
2019-02-06T04:56:50.767Z,1.42
2019-02-06T04:57:51.283Z,1.46
2019-02-06T04:58:50.749Z,1.52
2019-02-06T04:59:50.750Z,1.42
2019-02-06T05:00:50.714Z,1.44
2019-02-06T05:01:50.708Z,1.44
2019-02-06T05:02:50.684Z,1.46
2019-02-06T05:03:50.711Z,1.44
2019-02-06T05:04:50.678Z,1.49
2019-02-06T05:05:50.655Z,1.46
2019-02-06T05:06:50.668Z,1.42
2019-02-06T05:07:50.639Z,1.42
2019-02-06T05:08:50.652Z,1.50
2019-02-06T05:09:50.614Z,1.47
2019-02-06T05:10:50.609Z,1.52
2019-02-06T05:11:50.600Z,1.49
2019-02-06T05:12:50.585Z,1.43
2019-02-06T05:13:50.616Z,1.60
2019-02-06T05:14:50.561Z,1.54
2019-02-06T05:15:50.546Z,1.54
2019-02-06T05:16:50.725Z,1.64
2019-02-06T05:17:50.525Z,1.46
2019-02-06T05:18:50.554Z,1.60
2019-02-06T05:19:50.520Z,1.60
2019-02-06T05:20:50.573Z,1.68
2019-02-06T05:21:50.486Z,1.61
2019-02-06T05:22:50.474Z,1.70
2019-02-06T05:23:50.481Z,1.72
2019-02-06T05:24:50.453Z,1.68
2019-02-06T05:25:50.455Z,1.63
2019-02-06T05:26:50.430Z,1.63
2019-02-06T05:27:50.437Z,1.67
2019-02-06T05:28:50.448Z,1.70
2019-02-06T05:29:50.420Z,1.61
2019-02-06T05:30:50.388Z,1.75
2019-02-06T05:31:50.374Z,1.64
2019-02-06T05:32:50.357Z,1.71
2019-02-06T05:33:50.380Z,1.67
2019-02-06T05:34:50.345Z,1.71
2019-02-06T05:35:50.345Z,1.72
2019-02-06T05:36:51.051Z,1.82
2019-02-06T05:37:50.308Z,1.79
2019-02-06T05:38:50.334Z,1.75
2019-02-06T05:39:50.358Z,1.77
2019-02-06T05:40:50.287Z,1.83
2019-02-06T05:41:50.265Z,1.79
2019-02-06T05:42:52.620Z,1.79
2019-02-06T05:43:50.295Z,1.71
2019-02-06T05:44:50.245Z,1.72
2019-02-06T05:45:50.233Z,1.77
2019-02-06T05:47:59.469Z,1.82
2019-02-06T05:49:00.436Z,1.77
2019-02-06T05:50:00.376Z,1.71
2019-02-06T05:51:00.371Z,1.68
2019-02-06T05:52:00.359Z,1.72
2019-02-06T05:53:00.358Z,1.70
2019-02-06T05:54:00.375Z,1.67
2019-02-06T05:55:04.090Z,1.72
2019-02-06T05:56:00.312Z,1.68
2019-02-06T05:57:00.315Z,1.63
2019-02-06T05:58:00.297Z,1.70
2019-02-06T05:59:00.307Z,1.68
2019-02-06T06:00:00.278Z,1.67
2019-02-06T06:01:00.257Z,1.64
2019-02-06T06:02:00.266Z,1.74
2019-02-06T06:03:00.237Z,1.65
2019-02-06T06:04:00.266Z,1.64
2019-02-06T06:05:00.219Z,1.57
2019-02-06T06:06:00.217Z,1.61
2019-02-06T06:07:00.200Z,1.63
2019-02-06T06:08:00.189Z,1.54
2019-02-06T06:09:00.208Z,1.57
2019-02-06T06:10:00.220Z,1.49
2019-02-06T06:11:00.156Z,1.49
2019-02-06T06:12:00.151Z,1.49
2019-02-06T06:13:00.135Z,1.50
2019-02-06T06:14:00.147Z,1.52
2019-02-06T06:15:00.232Z,1.61
2019-02-06T06:16:00.114Z,1.61
2019-02-06T06:17:00.100Z,1.60
2019-02-06T06:18:00.088Z,1.56
2019-02-06T06:19:00.100Z,1.60
2019-02-06T06:20:00.102Z,1.54
2019-02-06T06:21:00.066Z,1.56
2019-02-06T06:22:00.048Z,1.57
2019-02-06T06:23:00.024Z,1.61
2019-02-06T06:24:00.023Z,1.63
2019-02-06T06:25:00.019Z,1.57
2019-02-06T06:25:59.999Z,1.74
2019-02-06T06:27:00.007Z,1.64
2019-02-06T06:27:59.987Z,1.72
2019-02-06T06:28:59.978Z,1.67
2019-02-06T06:29:59.966Z,1.68
2019-02-06T06:30:59.954Z,1.64
2019-02-06T06:31:59.937Z,1.71
2019-02-06T06:32:59.922Z,1.64
2019-02-06T06:33:59.914Z,1.70
2019-02-06T06:34:59.927Z,1.67
2019-02-06T06:35:59.898Z,1.88
2019-02-06T06:36:59.883Z,1.81
2019-02-06T06:38:02.600Z,1.83
2019-02-06T06:38:59.864Z,1.79
2019-02-06T06:39:59.876Z,1.79
2019-02-06T06:40:59.834Z,1.88
2019-02-06T06:41:59.833Z,1.88
2019-02-06T06:42:59.824Z,1.89
2019-02-06T06:43:59.808Z,1.88
2019-02-06T06:45:00.669Z,2.00
2019-02-06T06:45:59.803Z,1.95
2019-02-06T06:46:59.779Z,1.95
2019-02-06T06:47:59.769Z,1.98
2019-02-06T06:48:59.746Z,2.04
2019-02-06T06:49:59.740Z,2.05
2019-02-06T06:50:59.797Z,1.92
2019-02-06T06:51:59.718Z,2.02
2019-02-06T06:52:59.755Z,2.02
2019-02-06T06:53:59.718Z,2.09
2019-02-06T06:54:59.692Z,2.09
2019-02-06T06:55:59.785Z,2.02
2019-02-06T06:56:59.671Z,2.09
2019-02-06T06:57:59.651Z,2.11
2019-02-06T06:58:59.644Z,2.12
2019-02-06T06:59:59.635Z,2.18
2019-02-06T07:00:59.700Z,2.12
2019-02-06T07:01:59.622Z,2.14
2019-02-06T07:02:59.637Z,2.11
2019-02-06T07:03:59.593Z,2.08
2019-02-06T07:04:59.579Z,2.18
2019-02-06T07:05:59.593Z,2.29
2019-02-06T07:06:59.582Z,2.19
2019-02-06T07:08:09.141Z,2.26
2019-02-06T07:08:59.546Z,2.30
2019-02-06T07:09:59.530Z,2.22
2019-02-06T07:10:59.581Z,2.37
2019-02-06T07:11:59.516Z,2.36
2019-02-06T07:12:59.500Z,2.33
2019-02-06T07:13:59.494Z,2.32
2019-02-06T07:14:59.497Z,2.25
2019-02-06T07:16:00.463Z,2.26
2019-02-06T07:16:59.620Z,2.44
2019-02-06T07:17:59.456Z,2.29
2019-02-06T07:18:59.544Z,2.33
2019-02-06T07:19:59.435Z,2.36
2019-02-06T07:21:01.628Z,2.48
2019-02-06T07:21:59.416Z,2.50
2019-02-06T07:22:59.425Z,2.45
2019-02-06T07:23:59.418Z,2.56
2019-02-06T07:24:59.366Z,2.50
2019-02-06T07:26:00.181Z,2.48
2019-02-06T07:26:59.438Z,2.53
2019-02-06T07:27:59.333Z,2.53
2019-02-06T07:28:59.459Z,2.58
2019-02-06T07:29:59.325Z,2.58
2019-02-06T07:30:59.369Z,2.61
2019-02-06T07:31:59.331Z,2.58
2019-02-06T07:32:59.301Z,2.61
2019-02-06T07:33:59.305Z,2.68
2019-02-06T07:34:59.270Z,2.63
2019-02-06T07:35:59.258Z,2.77
2019-02-06T07:36:59.278Z,2.79
2019-02-06T07:37:59.239Z,2.80
2019-02-06T07:38:59.228Z,2.86
2019-02-06T07:39:59.213Z,2.83
2019-02-06T07:40:59.230Z,2.83
2019-02-06T07:41:59.220Z,2.90
2019-02-06T07:42:59.198Z,2.89
2019-02-06T07:43:59.158Z,2.89
2019-02-06T07:44:59.157Z,2.98
2019-02-06T07:45:59.154Z,2.92
2019-02-06T07:46:59.155Z,2.95
2019-02-06T07:49:09.481Z,3.04
2019-02-06T07:50:10.461Z,2.99
2019-02-06T07:51:10.462Z,3.01
2019-02-06T07:52:10.468Z,3.01
2019-02-06T07:53:10.423Z,3.02
2019-02-06T07:54:10.421Z,2.98
2019-02-06T07:55:10.390Z,3.10
2019-02-06T07:56:10.384Z,3.01
2019-02-06T07:57:10.400Z,3.10
2019-02-06T07:58:10.372Z,3.07
2019-02-06T07:59:10.353Z,3.05
2019-02-06T08:00:10.352Z,3.04
2019-02-06T08:01:10.360Z,3.16
2019-02-06T08:02:10.351Z,3.07
2019-02-06T08:03:10.335Z,3.19
2019-02-06T08:04:10.331Z,3.15
2019-02-06T08:05:10.286Z,3.19
2019-02-06T08:06:11.288Z,3.28
2019-02-06T08:07:10.330Z,3.30
2019-02-06T08:08:10.266Z,3.25
2019-02-06T08:09:10.250Z,3.30
2019-02-06T08:10:10.293Z,3.22
2019-02-06T08:11:10.319Z,3.23
2019-02-06T08:12:10.342Z,3.25
2019-02-06T08:13:10.220Z,3.35
2019-02-06T08:14:10.228Z,3.30
2019-02-06T08:15:10.182Z,3.37
2019-02-06T08:16:10.183Z,3.34
2019-02-06T08:17:10.196Z,3.42
2019-02-06T08:18:10.171Z,3.50
2019-02-06T08:19:10.138Z,3.45
2019-02-06T08:20:10.419Z,3.42
2019-02-06T08:21:10.122Z,3.44
2019-02-06T08:22:11.146Z,3.45
2019-02-06T08:23:10.116Z,3.42
2019-02-06T08:24:10.080Z,3.50
2019-02-06T08:25:10.085Z,3.44
2019-02-06T08:26:10.075Z,3.45
2019-02-06T08:27:10.099Z,3.45
2019-02-06T08:28:10.043Z,3.45
2019-02-06T08:29:10.032Z,3.42
2019-02-06T08:30:10.043Z,3.42
2019-02-06T08:31:10.021Z,3.54
2019-02-06T08:32:10.006Z,3.56
2019-02-06T08:33:10.035Z,3.49
2019-02-06T08:34:09.973Z,3.52
2019-02-06T08:35:10.026Z,3.60
2019-02-06T08:36:10.593Z,3.70
2019-02-06T08:37:09.959Z,3.64
2019-02-06T08:38:09.991Z,3.62
2019-02-06T08:39:09.971Z,3.64
2019-02-06T08:40:09.936Z,3.74
2019-02-06T08:41:09.914Z,3.78
2019-02-06T08:42:09.891Z,3.74
2019-02-06T08:43:09.906Z,3.80
2019-02-06T08:44:09.885Z,3.75
2019-02-06T08:45:09.862Z,3.86
2019-02-06T08:46:10.674Z,3.78
2019-02-06T08:47:09.839Z,3.80
2019-02-06T08:48:09.847Z,3.82
2019-02-06T08:49:10.937Z,3.90
2019-02-06T08:50:09.811Z,3.88
2019-02-06T08:51:09.804Z,3.92
2019-02-06T08:52:09.799Z,3.96
2019-02-06T08:53:09.809Z,3.99
2019-02-06T08:54:09.780Z,3.98
2019-02-06T08:55:09.765Z,4.04
2019-02-06T08:56:09.758Z,4.00
2019-02-06T08:57:09.822Z,4.02
2019-02-06T08:58:09.741Z,4.00
2019-02-06T08:59:09.725Z,3.99
2019-02-06T09:00:10.204Z,4.10
2019-02-06T09:01:09.762Z,4.08
2019-02-06T09:02:09.773Z,3.99
2019-02-06T09:03:09.706Z,4.04
2019-02-06T09:04:09.663Z,4.04
2019-02-06T09:05:09.650Z,4.06
2019-02-06T09:06:09.641Z,4.07
2019-02-06T09:07:09.639Z,4.00
2019-02-06T09:08:09.643Z,4.00
2019-02-06T09:09:09.612Z,4.04
2019-02-06T09:10:09.610Z,4.02
2019-02-06T09:11:09.606Z,4.11
2019-02-06T09:12:09.728Z,4.14
2019-02-06T09:13:09.641Z,4.20
2019-02-06T09:14:09.576Z,4.16
2019-02-06T09:15:09.538Z,4.18
2019-02-06T09:16:10.261Z,4.21
2019-02-06T09:17:09.549Z,4.16
2019-02-06T09:18:09.538Z,4.20
2019-02-06T09:19:10.173Z,4.28
2019-02-06T09:20:09.517Z,4.26
2019-02-06T09:21:09.474Z,4.28
2019-02-06T09:22:09.488Z,4.39
2019-02-06T09:23:09.482Z,4.39
2019-02-06T09:24:09.477Z,4.35
2019-02-06T09:25:09.450Z,4.34
2019-02-06T09:26:09.445Z,4.36
2019-02-06T09:27:09.429Z,4.36
2019-02-06T09:28:09.430Z,4.46
2019-02-06T09:29:09.447Z,4.50
2019-02-06T09:30:09.406Z,4.50
2019-02-06T09:31:09.401Z,4.53
2019-02-06T09:32:09.382Z,4.53
2019-02-06T09:33:09.379Z,4.65
2019-02-06T09:34:09.877Z,4.64
2019-02-06T09:35:09.327Z,4.77
2019-02-06T09:36:09.310Z,4.80
2019-02-06T09:37:09.330Z,4.83
2019-02-06T09:38:09.310Z,4.93
2019-02-06T09:39:11.648Z,4.91
2019-02-06T09:40:09.268Z,4.87
2019-02-06T09:41:09.272Z,4.91
2019-02-06T09:42:09.250Z,4.97
2019-02-06T09:43:10.354Z,4.94
2019-02-06T09:44:09.261Z,5.09
2019-02-06T09:45:09.243Z,5.09
2019-02-06T09:46:09.206Z,5.04
2019-02-06T09:47:09.203Z,5.17
2019-02-06T09:48:10.080Z,5.14
2019-02-06T09:50:40.303Z,5.37
2019-02-06T09:51:41.257Z,5.37
2019-02-06T09:52:41.307Z,5.52
2019-02-06T09:53:41.257Z,5.52
2019-02-06T09:54:41.386Z,5.52
2019-02-06T09:55:41.256Z,5.55
2019-02-06T09:56:41.521Z,5.55
2019-02-06T09:57:41.182Z,5.65
2019-02-06T09:58:41.249Z,5.60
2019-02-06T09:59:41.214Z,5.66
2019-02-06T10:00:41.180Z,5.69
2019-02-06T10:01:41.159Z,5.83
2019-02-06T10:02:41.136Z,5.78
2019-02-06T10:03:41.127Z,5.77
2019-02-06T10:04:41.128Z,5.75
2019-02-06T10:05:41.117Z,5.78
2019-02-06T10:06:41.082Z,5.78
2019-02-06T10:07:41.437Z,5.95
2019-02-06T10:08:41.249Z,5.93
2019-02-06T10:09:41.061Z,5.90
2019-02-06T10:10:41.087Z,6.03
2019-02-06T10:11:41.036Z,5.95
2019-02-06T10:12:41.028Z,6.20
2019-02-06T10:13:41.015Z,6.20
2019-02-06T10:14:41.123Z,6.19
2019-02-06T10:15:41.001Z,6.24
2019-02-06T10:16:40.982Z,6.30
2019-02-06T10:17:40.972Z,6.21
2019-02-06T10:18:40.978Z,6.17
2019-02-06T10:19:42.559Z,6.27
2019-02-06T10:20:40.928Z,6.24
2019-02-06T10:21:41.522Z,6.27
2019-02-06T10:22:40.923Z,6.35
2019-02-06T10:23:40.904Z,6.38
2019-02-06T10:24:41.060Z,6.30
2019-02-06T10:25:40.894Z,6.28
2019-02-06T10:26:40.901Z,6.27
2019-02-06T10:27:40.878Z,6.16
2019-02-06T10:28:40.855Z,6.24
2019-02-06T10:29:40.829Z,6.33
2019-02-06T10:30:40.826Z,6.43
2019-02-06T10:31:40.928Z,6.42
2019-02-06T10:32:40.913Z,6.42
2019-02-06T10:33:40.793Z,6.40
2019-02-06T10:34:41.024Z,6.55
2019-02-06T10:35:40.924Z,6.63
2019-02-06T10:36:40.808Z,6.53
2019-02-06T10:37:40.775Z,6.64
2019-02-06T10:38:40.751Z,6.55
2019-02-06T10:39:40.731Z,6.64
2019-02-06T10:40:40.760Z,6.65
2019-02-06T10:41:40.720Z,6.71
2019-02-06T10:42:40.712Z,6.78
2019-02-06T10:43:40.698Z,6.79
2019-02-06T10:44:40.680Z,6.96
2019-02-06T10:45:40.669Z,6.93
2019-02-06T10:46:40.648Z,7.00
2019-02-06T10:47:40.697Z,6.91
2019-02-06T10:48:40.634Z,7.01
2019-02-06T10:49:41.682Z,6.89
2019-02-06T10:50:40.625Z,7.00
2019-02-06T10:51:40.602Z,7.00
2019-02-06T10:52:40.607Z,6.97
2019-02-06T10:53:40.601Z,7.07
2019-02-06T10:54:40.562Z,7.11
2019-02-06T10:55:40.579Z,7.18
2019-02-06T10:56:40.574Z,7.26
2019-02-06T10:57:40.558Z,7.18
2019-02-06T10:58:40.568Z,7.12
2019-02-06T10:59:40.610Z,7.36
2019-02-06T11:00:40.557Z,7.37
2019-02-06T11:01:41.747Z,7.42
2019-02-06T11:02:40.603Z,7.45
2019-02-06T11:03:40.473Z,7.50
2019-02-06T11:04:40.459Z,7.34
2019-02-06T11:05:40.445Z,7.51
2019-02-06T11:06:40.446Z,7.47
2019-02-06T11:07:40.456Z,7.51
2019-02-06T11:08:40.413Z,7.52
2019-02-06T11:09:45.967Z,7.45
2019-02-06T11:10:40.447Z,7.41
2019-02-06T11:11:40.375Z,7.48
2019-02-06T11:12:40.382Z,7.44
2019-02-06T11:13:40.369Z,7.54
2019-02-06T11:14:40.344Z,7.48
2019-02-06T11:15:40.359Z,7.54
2019-02-06T11:16:40.318Z,7.42
2019-02-06T11:17:40.322Z,7.47
2019-02-06T11:18:40.300Z,7.42
2019-02-06T11:19:43.039Z,7.50
2019-02-06T11:20:40.285Z,7.37
2019-02-06T11:21:40.261Z,7.39
2019-02-06T11:22:40.285Z,7.41
2019-02-06T11:23:40.277Z,7.34
2019-02-06T11:24:40.234Z,7.30
2019-02-06T11:25:40.277Z,7.30
2019-02-06T11:26:40.248Z,7.19
2019-02-06T11:27:40.269Z,7.34
2019-02-06T11:28:40.213Z,7.33
2019-02-06T11:29:40.171Z,7.41
2019-02-06T11:30:40.170Z,7.33
2019-02-06T11:31:40.152Z,7.36
2019-02-06T11:32:40.137Z,7.50
2019-02-06T11:33:40.163Z,7.45
2019-02-06T11:34:40.202Z,7.50
2019-02-06T11:35:40.130Z,7.48
2019-02-06T11:36:40.147Z,7.60
2019-02-06T11:37:40.092Z,7.54
2019-02-06T11:38:40.174Z,7.57
2019-02-06T11:39:40.236Z,7.52
2019-02-06T11:40:40.057Z,7.62
2019-02-06T11:41:40.060Z,7.73
2019-02-06T11:42:40.024Z,7.62
2019-02-06T11:43:40.069Z,7.66
2019-02-06T11:44:40.233Z,7.67
2019-02-06T11:45:40.086Z,7.66
2019-02-06T11:46:40.054Z,7.70
2019-02-06T11:47:40.375Z,7.79
2019-02-06T11:48:39.967Z,7.81
2019-02-06T11:49:40.037Z,7.81
